White, PA (15490)

2:56 PM EDT on September 01, 2014 (GMT -0400)
Indian Head | Change Station
CLOSE
Current Station
Personal Weather Station
Location: Indian Head, PA
Elevation: 1421 ft
Nearby Weather Stations

Elev 1421 ft 40.03 °N, 79.40 °W | Updated 11 minutes ago

Mostly Cloudy
Mostly Cloudy
82.4 °F
Feels Like 87 °F
N
2.7
Wind Variable Wind from South

Today
High -- | Low -- °F
--% Chance of Precip.
Yesterday
High -- | Low -- °F
Precip. -- in
6:45 AM 7:49 PM
Waxing Crescent, 43% visible
Pressure 30.02 in
Visibility 10.0 miles
Clouds Few 2100 ft
Scattered Clouds 2700 ft
Mostly Cloudy 3400 ft
Heat Index 87 °F
Dew Point 70 °F
Humidity 67%
Rainfall 0.09 in
Snow Depth Not available.
UV 4 out of 12
Pollen 9.20 out of 12
Air Quality Not available.
Flu Activity Not available.
METAR KLBE 011845Z 24009KT 10SM FEW021 SCT027 BKN034 27/23 A3002

More Conditions Fewer Conditions

Pressure 30.02 in
Visibility 10.0 miles
Clouds Few 2100 ft
Scattered Clouds 2700 ft
Mostly Cloudy 3400 ft
Heat Index 87 °F
Dew Point 70 °F
Humidity 67%
Rainfall 0.09 in
Snow Depth Not available.
UV 4 out of 12
Pollen 9.20 out of 12
Air Quality Not available.
Flu Activity Not available.
METAR KLBE 011845Z 24009KT 10SM FEW021 SCT027 BKN034 27/23 A3002

More Conditions Fewer Conditions

10-Day Weather Forecast

Almanac

Astronomy

Sep. 01, 2014 Rise Set
Actual Time 6:45 AM EDT 7:49 PM EDT
Civil Twilight 6:17 AM EDT 8:16 PM EDT
Nautical Twilight 5:44 AM EDT 8:50 PM EDT
Astronomical Twilight 5:09 AM EDT 9:24 PM EDT
Moon 1:29 PM EDT 11:48 PM EDT
Length of Visible Light 13h 59m
Length of Day
13h 03m
Tomorrow will be 2m 32s shorter.
Waxing Crescent, 43% of the Moon is Illuminated
Today
Waxing Crescent
Sep 2
First Quarter
Sep 8
Full
Sep 15
Last Quarter
Sep 24
New

Today's Extremes

State Highs State Lows

Community

WunderPhotos

Upload Photos

1,749,359 photos uploaded!

Nearby

Snow Depth

Station Depth Elevation
No new snow has been reported.

Earthquake Activity

City Distance Mag. Time & Date
No recent earthquake activity has been reported nearby.
Minimum magnitude displayed is 2.5.

Coastal Water Temperatures

Place Temperature
No Stations Reporting

Nearby Weather Stations